Terminal Aerodrome Forecast
Issued by NWS Sterling, VA

Current Version | Previous Version | Graphics & Text | Print | Product List | Glossary On
Versions: 1 2 3 4 5 6 7 8 9 10 11 12 13 14 15 16 17 18 19 20 21 22 23 24 25 26 27
000
FTUS41 KLWX 260536
TAFIAD
TAF
KIAD 260536Z 2606/2712 20005KT P6SM SCT090
     FM261600 24016G24KT P6SM SCT060
     FM261800 24016G24KT 6SM -SHRA SCT060
     FM262000 27013G19KT 6SM -SHRA BKN090
     FM262300 29008KT 6SM -SHRA BKN090
     FM270000 30006KT P6SM SCT050
     FM270800 02008KT P6SM OVC030=

USA.gov is the U.S. government's official web portal to all federal, state and local government web resources and services.